Watertown Regional Airport
KATY : now visible

Airfield :











YOU CAN JOIN US ON...

 
LOGIN :

Register | Disclaimer

   EN    FR    IT 

 









Legend :    VFR   Marginal VFR   IFR   Intensive IFR   Very Intensive IFR
Visi :
Ceiling :
>= 8 km
>= 3000ft
5 to 8 km
1000 to 3000 ft
1500m to 5 km
500 to 1000 ft
800 to 1500m
200 to 500 ft
< 800m
< 200 ft
Symbols :   Thunderstorms  Fog  Heavy snow  Heavy precipitations  Wind > 20 kt






- Airport Elevation : 1749 ft
- IATA code : ATY


KATY - Watertown Regional

CURRENT METAR :
  • 281653Z AUTO 02011KT 10SM -RA OVC042 06/03 A2975 RMK AO2 RAB38 SLP085 P0000 T00560028

EXPIRED METARs :
  • 281553Z AUTO 04013KT 10SM BKN034 OVC060 06/02 A2975 RMK AO2 SLP083 T00560017
  • 281453Z AUTO 04014G22KT 10SM FEW038 FEW085 BKN110 06/02 A2972 RMK AO2 SLP074 T00560022 58012

TAF KATY
Valid from the 28 at 17:00 until the 29 at 12:00 UTC


281710Z 2817/2912 02013KT P6SM -RA OVC040
FM282200 02023G34KT P6SM VCSH OVC045
FM290900 34020G30KT P6SM SCT028



MET'MAP, your aeronautical weather chart ! - Copyright ORBIFLY December 2007 - Disclaimer

ORBIFLY MET'MAP TEAM :

Programming & Development : Alexandra Zaïnal
Concept & original design : Baudouin d'Aumeries
Assistance for programming : Marc-Olivier Méhu
Technical & hardware support : Manuel Goepfert

Contact : metmap@orbifly.com




SOURCES & CREDITS :

   NOAA       Earth
Advisory